sensor_id;sensor_type;location;lat;lon;timestamp;P1;durP1;ratioP1;P2;durP2;ratioP2
74401;SDS011;62837;51.082;13.744;2022-09-12T00:01:42;8.40;;;5.10;;
74401;SDS011;62837;51.082;13.744;2022-09-12T00:04:13;7.90;;;5.00;;
74401;SDS011;62837;51.082;13.744;2022-09-12T00:06:43;7.80;;;4.70;;
74401;SDS011;62837;51.082;13.744;2022-09-12T00:09:14;7.10;;;5.40;;
74401;SDS011;62837;51.082;13.744;2022-09-12T00:11:45;9.00;;;5.40;;
74401;SDS011;62837;51.082;13.744;2022-09-12T00:14:16;8.50;;;5.30;;
74401;SDS011;62837;51.082;13.744;2022-09-12T00:16:47;11.00;;;5.80;;
74401;SDS011;62837;51.082;13.744;2022-09-12T00:19:18;8.20;;;5.60;;
74401;SDS011;62837;51.082;13.744;2022-09-12T00:21:49;10.00;;;6.00;;
74401;SDS011;62837;51.082;13.744;2022-09-12T00:24:19;8.00;;;5.50;;
74401;SDS011;62837;51.082;13.744;2022-09-12T00:26:50;7.30;;;5.00;;
74401;SDS011;62837;51.082;13.744;2022-09-12T00:29:21;8.70;;;6.50;;
74401;SDS011;62837;51.082;13.744;2022-09-12T00:31:52;8.30;;;5.00;;
74401;SDS011;62837;51.082;13.744;2022-09-12T00:34:22;7.90;;;5.40;;
74401;SDS011;62837;51.082;13.744;2022-09-12T00:36:53;8.40;;;5.90;;
74401;SDS011;62837;51.082;13.744;2022-09-12T00:39:24;9.10;;;6.20;;
74401;SDS011;62837;51.082;13.744;2022-09-12T00:41:54;9.50;;;5.70;;
74401;SDS011;62837;51.082;13.744;2022-09-12T00:47:26;9.10;;;4.80;;
74401;SDS011;62837;51.082;13.744;2022-09-12T00:50:00;7.00;;;5.10;;
74401;SDS011;62837;51.082;13.744;2022-09-12T00:52:36;6.80;;;4.90;;
74401;SDS011;62837;51.082;13.744;2022-09-12T00:55:12;9.90;;;6.60;;
74401;SDS011;62837;51.082;13.744;2022-09-12T00:57:49;9.40;;;6.00;;
74401;SDS011;62837;51.082;13.744;2022-09-12T01:00:22;8.20;;;5.20;;
74401;SDS011;62837;51.082;13.744;2022-09-12T01:02:56;7.80;;;5.50;;
74401;SDS011;62837;51.082;13.744;2022-09-12T01:05:29;10.20;;;5.40;;
74401;SDS011;62837;51.082;13.744;2022-09-12T01:08:03;9.40;;;5.10;;
74401;SDS011;62837;51.082;13.744;2022-09-12T01:10:35;7.80;;;5.00;;
74401;SDS011;62837;51.082;13.744;2022-09-12T01:13:08;9.30;;;5.20;;
74401;SDS011;62837;51.082;13.744;2022-09-12T01:15:41;9.90;;;6.20;;
74401;SDS011;62837;51.082;13.744;2022-09-12T01:18:15;11.20;;;7.70;;
74401;SDS011;62837;51.082;13.744;2022-09-12T01:20:55;9.70;;;7.10;;
74401;SDS011;62837;51.082;13.744;2022-09-12T01:26:51;7.90;;;5.60;;
74401;SDS011;62837;51.082;13.744;2022-09-12T01:30:02;8.10;;;5.50;;
74401;SDS011;62837;51.082;13.744;2022-09-12T01:32:46;7.80;;;5.00;;
74401;SDS011;62837;51.082;13.744;2022-09-12T01:35:27;10.60;;;6.70;;
74401;SDS011;62837;51.082;13.744;2022-09-12T01:38:06;9.00;;;6.00;;
74401;SDS011;62837;51.082;13.744;2022-09-12T01:40:44;9.80;;;6.30;;
74401;SDS011;62837;51.082;13.744;2022-09-12T01:43:22;10.60;;;6.00;;
74401;SDS011;62837;51.082;13.744;2022-09-12T01:46:01;9.20;;;6.00;;
74401;SDS011;62837;51.082;13.744;2022-09-12T01:48:37;8.40;;;6.10;;
74401;SDS011;62837;51.082;13.744;2022-09-12T01:51:12;9.30;;;5.90;;
74401;SDS011;62837;51.082;13.744;2022-09-12T01:53:49;10.50;;;7.60;;
74401;SDS011;62837;51.082;13.744;2022-09-12T01:56:26;10.80;;;7.10;;
74401;SDS011;62837;51.082;13.744;2022-09-12T01:59:00;16.70;;;8.80;;
74401;SDS011;62837;51.082;13.744;2022-09-12T02:01:38;10.70;;;7.40;;
74401;SDS011;62837;51.082;13.744;2022-09-12T02:04:14;10.10;;;6.20;;
74401;SDS011;62837;51.082;13.744;2022-09-12T02:06:51;11.70;;;6.60;;
74401;SDS011;62837;51.082;13.744;2022-09-12T02:09:27;10.00;;;6.30;;
74401;SDS011;62837;51.082;13.744;2022-09-12T02:12:03;10.00;;;6.80;;
74401;SDS011;62837;51.082;13.744;2022-09-12T02:14:37;11.30;;;6.20;;
74401;SDS011;62837;51.082;13.744;2022-09-12T02:17:13;11.80;;;6.80;;
74401;SDS011;62837;51.082;13.744;2022-09-12T02:19:48;8.80;;;6.10;;
74401;SDS011;62837;51.082;13.744;2022-09-12T02:22:24;8.50;;;6.40;;
74401;SDS011;62837;51.082;13.744;2022-09-12T02:24:58;11.40;;;6.90;;
74401;SDS011;62837;51.082;13.744;2022-09-12T02:27:31;9.10;;;5.80;;
74401;SDS011;62837;51.082;13.744;2022-09-12T02:30:06;7.60;;;5.60;;
74401;SDS011;62837;51.082;13.744;2022-09-12T02:32:42;9.90;;;6.90;;
74401;SDS011;62837;51.082;13.744;2022-09-12T02:35:24;12.50;;;7.30;;
74401;SDS011;62837;51.082;13.744;2022-09-12T02:38:06;11.90;;;7.20;;
74401;SDS011;62837;51.082;13.744;2022-09-12T02:40:41;8.60;;;6.20;;
74401;SDS011;62837;51.082;13.744;2022-09-12T02:43:12;10.00;;;6.00;;
74401;SDS011;62837;51.082;13.744;2022-09-12T02:45:42;9.10;;;6.30;;
74401;SDS011;62837;51.082;13.744;2022-09-12T02:48:14;10.00;;;7.20;;
74401;SDS011;62837;51.082;13.744;2022-09-12T02:50:48;10.40;;;6.80;;
74401;SDS011;62837;51.082;13.744;2022-09-12T02:53:19;9.90;;;6.40;;
74401;SDS011;62837;51.082;13.744;2022-09-12T02:55:50;9.90;;;6.70;;
74401;SDS011;62837;51.082;13.744;2022-09-12T02:58:22;11.40;;;7.60;;
74401;SDS011;62837;51.082;13.744;2022-09-12T03:00:57;9.20;;;5.80;;
74401;SDS011;62837;51.082;13.744;2022-09-12T03:03:41;12.70;;;7.10;;
74401;SDS011;62837;51.082;13.744;2022-09-12T03:06:26;10.50;;;5.90;;
74401;SDS011;62837;51.082;13.744;2022-09-12T03:09:03;8.60;;;6.50;;
74401;SDS011;62837;51.082;13.744;2022-09-12T03:11:44;12.80;;;8.00;;
74401;SDS011;62837;51.082;13.744;2022-09-12T03:14:34;11.20;;;7.40;;
74401;SDS011;62837;51.082;13.744;2022-09-12T03:17:22;9.10;;;7.30;;
74401;SDS011;62837;51.082;13.744;2022-09-12T03:19:59;12.70;;;9.10;;
74401;SDS011;62837;51.082;13.744;2022-09-12T03:22:34;12.50;;;7.60;;
74401;SDS011;62837;51.082;13.744;2022-09-12T03:25:19;7.80;;;5.90;;
74401;SDS011;62837;51.082;13.744;2022-09-12T03:27:56;13.50;;;7.50;;
74401;SDS011;62837;51.082;13.744;2022-09-12T03:30:37;12.00;;;7.10;;
74401;SDS011;62837;51.082;13.744;2022-09-12T03:33:11;11.20;;;7.20;;
74401;SDS011;62837;51.082;13.744;2022-09-12T03:35:44;12.90;;;10.10;;
74401;SDS011;62837;51.082;13.744;2022-09-12T03:38:15;9.70;;;6.70;;
74401;SDS011;62837;51.082;13.744;2022-09-12T03:40:46;9.70;;;6.80;;
74401;SDS011;62837;51.082;13.744;2022-09-12T03:43:21;8.80;;;6.30;;
74401;SDS011;62837;51.082;13.744;2022-09-12T03:45:52;14.70;;;9.70;;
74401;SDS011;62837;51.082;13.744;2022-09-12T03:48:23;9.30;;;6.80;;
74401;SDS011;62837;51.082;13.744;2022-09-12T03:50:54;11.20;;;7.40;;
74401;SDS011;62837;51.082;13.744;2022-09-12T03:53:27;10.10;;;6.80;;
74401;SDS011;62837;51.082;13.744;2022-09-12T03:55:58;11.40;;;6.90;;
74401;SDS011;62837;51.082;13.744;2022-09-12T03:58:33;12.00;;;7.60;;
74401;SDS011;62837;51.082;13.744;2022-09-12T04:01:07;13.60;;;7.30;;
74401;SDS011;62837;51.082;13.744;2022-09-12T04:03:39;12.30;;;7.60;;
74401;SDS011;62837;51.082;13.744;2022-09-12T04:06:11;13.20;;;8.10;;
74401;SDS011;62837;51.082;13.744;2022-09-12T04:08:45;11.50;;;7.90;;
74401;SDS011;62837;51.082;13.744;2022-09-12T04:11:18;12.90;;;8.00;;
74401;SDS011;62837;51.082;13.744;2022-09-12T04:13:50;12.90;;;7.80;;
74401;SDS011;62837;51.082;13.744;2022-09-12T04:16:21;10.60;;;6.50;;
74401;SDS011;62837;51.082;13.744;2022-09-12T04:18:51;12.30;;;6.80;;
74401;SDS011;62837;51.082;13.744;2022-09-12T04:21:22;9.40;;;5.90;;
74401;SDS011;62837;51.082;13.744;2022-09-12T04:23:54;13.30;;;8.90;;
74401;SDS011;62837;51.082;13.744;2022-09-12T04:26:24;13.40;;;9.20;;
74401;SDS011;62837;51.082;13.744;2022-09-12T04:28:56;10.10;;;7.30;;
74401;SDS011;62837;51.082;13.744;2022-09-12T04:31:27;13.80;;;9.40;;
74401;SDS011;62837;51.082;13.744;2022-09-12T04:33:59;10.80;;;7.50;;
74401;SDS011;62837;51.082;13.744;2022-09-12T04:36:29;10.20;;;6.50;;
74401;SDS011;62837;51.082;13.744;2022-09-12T04:39:02;15.40;;;7.60;;
74401;SDS011;62837;51.082;13.744;2022-09-12T04:41:35;10.50;;;7.70;;
74401;SDS011;62837;51.082;13.744;2022-09-12T04:44:09;13.00;;;7.60;;
74401;SDS011;62837;51.082;13.744;2022-09-12T04:46:42;14.70;;;7.90;;
74401;SDS011;62837;51.082;13.744;2022-09-12T04:49:14;9.00;;;6.50;;
74401;SDS011;62837;51.082;13.744;2022-09-12T04:51:46;12.90;;;6.20;;
74401;SDS011;62837;51.082;13.744;2022-09-12T04:54:17;11.80;;;6.30;;
74401;SDS011;62837;51.082;13.744;2022-09-12T04:56:48;15.10;;;9.40;;
74401;SDS011;62837;51.082;13.744;2022-09-12T04:59:21;11.70;;;7.20;;
74401;SDS011;62837;51.082;13.744;2022-09-12T05:01:52;15.80;;;6.90;;
74401;SDS011;62837;51.082;13.744;2022-09-12T05:04:22;10.70;;;6.80;;
74401;SDS011;62837;51.082;13.744;2022-09-12T05:06:53;7.40;;;5.00;;
74401;SDS011;62837;51.082;13.744;2022-09-12T05:09:25;11.10;;;6.30;;
74401;SDS011;62837;51.082;13.744;2022-09-12T05:11:56;8.90;;;6.10;;
74401;SDS011;62837;51.082;13.744;2022-09-12T05:14:32;8.50;;;5.80;;
74401;SDS011;62837;51.082;13.744;2022-09-12T05:17:03;12.90;;;6.40;;
74401;SDS011;62837;51.082;13.744;2022-09-12T05:19:34;12.70;;;7.50;;
74401;SDS011;62837;51.082;13.744;2022-09-12T05:22:05;10.90;;;5.50;;
74401;SDS011;62837;51.082;13.744;2022-09-12T05:24:36;9.40;;;6.00;;
74401;SDS011;62837;51.082;13.744;2022-09-12T05:27:17;8.80;;;5.60;;
74401;SDS011;62837;51.082;13.744;2022-09-12T05:29:48;7.10;;;4.80;;
74401;SDS011;62837;51.082;13.744;2022-09-12T05:32:19;7.30;;;4.60;;
74401;SDS011;62837;51.082;13.744;2022-09-12T05:34:49;15.10;;;8.90;;
74401;SDS011;62837;51.082;13.744;2022-09-12T05:37:20;9.90;;;6.00;;
74401;SDS011;62837;51.082;13.744;2022-09-12T05:39:51;11.40;;;7.70;;
74401;SDS011;62837;51.082;13.744;2022-09-12T05:42:22;8.90;;;5.50;;
74401;SDS011;62837;51.082;13.744;2022-09-12T05:44:53;7.70;;;5.50;;
74401;SDS011;62837;51.082;13.744;2022-09-12T05:47:24;10.20;;;6.00;;
74401;SDS011;62837;51.082;13.744;2022-09-12T05:49:54;8.50;;;5.90;;
74401;SDS011;62837;51.082;13.744;2022-09-12T05:52:26;11.10;;;5.70;;
74401;SDS011;62837;51.082;13.744;2022-09-12T05:54:57;10.30;;;6.40;;
74401;SDS011;62837;51.082;13.744;2022-09-12T05:57:28;13.70;;;9.40;;
74401;SDS011;62837;51.082;13.744;2022-09-12T05:59:59;14.70;;;8.40;;
74401;SDS011;62837;51.082;13.744;2022-09-12T06:02:38;18.40;;;10.10;;
74401;SDS011;62837;51.082;13.744;2022-09-12T06:05:09;15.80;;;9.90;;
74401;SDS011;62837;51.082;13.744;2022-09-12T06:07:40;14.30;;;9.10;;
74401;SDS011;62837;51.082;13.744;2022-09-12T06:10:11;15.70;;;10.60;;
74401;SDS011;62837;51.082;13.744;2022-09-12T06:12:42;14.70;;;9.60;;
74401;SDS011;62837;51.082;13.744;2022-09-12T06:15:14;16.30;;;9.00;;
74401;SDS011;62837;51.082;13.744;2022-09-12T06:17:45;17.00;;;10.20;;
74401;SDS011;62837;51.082;13.744;2022-09-12T06:20:18;13.90;;;9.00;;
74401;SDS011;62837;51.082;13.744;2022-09-12T06:22:49;14.90;;;9.10;;
74401;SDS011;62837;51.082;13.744;2022-09-12T06:25:22;13.80;;;8.60;;
74401;SDS011;62837;51.082;13.744;2022-09-12T06:27:53;15.00;;;10.40;;
74401;SDS011;62837;51.082;13.744;2022-09-12T06:30:23;15.10;;;8.70;;
74401;SDS011;62837;51.082;13.744;2022-09-12T06:32:54;14.90;;;10.30;;
74401;SDS011;62837;51.082;13.744;2022-09-12T06:35:25;15.60;;;9.40;;
74401;SDS011;62837;51.082;13.744;2022-09-12T06:37:56;12.40;;;8.10;;
74401;SDS011;62837;51.082;13.744;2022-09-12T06:40:26;16.00;;;9.00;;
74401;SDS011;62837;51.082;13.744;2022-09-12T06:42:57;12.70;;;8.50;;
74401;SDS011;62837;51.082;13.744;2022-09-12T06:45:34;13.10;;;8.40;;
74401;SDS011;62837;51.082;13.744;2022-09-12T06:48:04;19.80;;;10.50;;
74401;SDS011;62837;51.082;13.744;2022-09-12T06:50:35;15.20;;;10.20;;
74401;SDS011;62837;51.082;13.744;2022-09-12T06:53:06;15.30;;;9.70;;
74401;SDS011;62837;51.082;13.744;2022-09-12T06:55:37;17.80;;;9.10;;
74401;SDS011;62837;51.082;13.744;2022-09-12T06:58:08;13.90;;;9.30;;
74401;SDS011;62837;51.082;13.744;2022-09-12T07:00:38;12.90;;;8.70;;
74401;SDS011;62837;51.082;13.744;2022-09-12T07:03:09;15.50;;;9.10;;
74401;SDS011;62837;51.082;13.744;2022-09-12T07:05:40;18.60;;;10.60;;
74401;SDS011;62837;51.082;13.744;2022-09-12T07:08:11;15.80;;;9.60;;
74401;SDS011;62837;51.082;13.744;2022-09-12T07:10:41;14.70;;;9.30;;
74401;SDS011;62837;51.082;13.744;2022-09-12T07:13:12;18.30;;;11.10;;
74401;SDS011;62837;51.082;13.744;2022-09-12T07:15:43;15.40;;;9.90;;
74401;SDS011;62837;51.082;13.744;2022-09-12T07:18:13;12.80;;;8.00;;
74401;SDS011;62837;51.082;13.744;2022-09-12T07:20:44;11.00;;;8.30;;
74401;SDS011;62837;51.082;13.744;2022-09-12T07:23:15;11.50;;;7.20;;
74401;SDS011;62837;51.082;13.744;2022-09-12T07:25:52;16.50;;;9.90;;
74401;SDS011;62837;51.082;13.744;2022-09-12T07:28:24;14.30;;;8.40;;
74401;SDS011;62837;51.082;13.744;2022-09-12T07:33:25;12.00;;;6.90;;
74401;SDS011;62837;51.082;13.744;2022-09-12T07:36:00;12.60;;;8.00;;
74401;SDS011;62837;51.082;13.744;2022-09-12T07:38:33;12.90;;;7.90;;
74401;SDS011;62837;51.082;13.744;2022-09-12T07:41:10;13.10;;;8.50;;
74401;SDS011;62837;51.082;13.744;2022-09-12T07:43:41;10.60;;;7.20;;
74401;SDS011;62837;51.082;13.744;2022-09-12T07:46:12;13.60;;;7.80;;
74401;SDS011;62837;51.082;13.744;2022-09-12T07:48:43;11.30;;;7.40;;
74401;SDS011;62837;51.082;13.744;2022-09-12T07:51:16;11.00;;;7.50;;
74401;SDS011;62837;51.082;13.744;2022-09-12T07:53:48;12.30;;;8.10;;
74401;SDS011;62837;51.082;13.744;2022-09-12T07:56:19;10.00;;;6.00;;
74401;SDS011;62837;51.082;13.744;2022-09-12T07:58:56;11.70;;;7.00;;
74401;SDS011;62837;51.082;13.744;2022-09-12T08:01:27;11.70;;;7.30;;
74401;SDS011;62837;51.082;13.744;2022-09-12T08:03:58;9.90;;;6.70;;
74401;SDS011;62837;51.082;13.744;2022-09-12T08:06:31;9.40;;;6.00;;
74401;SDS011;62837;51.082;13.744;2022-09-12T08:09:03;12.00;;;7.90;;
74401;SDS011;62837;51.082;13.744;2022-09-12T08:11:35;10.60;;;6.60;;
74401;SDS011;62837;51.082;13.744;2022-09-12T08:14:06;9.30;;;6.40;;
74401;SDS011;62837;51.082;13.744;2022-09-12T08:16:37;8.20;;;5.50;;
74401;SDS011;62837;51.082;13.744;2022-09-12T08:19:08;7.10;;;5.30;;
74401;SDS011;62837;51.082;13.744;2022-09-12T08:21:39;6.90;;;5.20;;
74401;SDS011;62837;51.082;13.744;2022-09-12T08:24:10;8.80;;;5.70;;
74401;SDS011;62837;51.082;13.744;2022-09-12T08:26:42;7.80;;;5.00;;
74401;SDS011;62837;51.082;13.744;2022-09-12T08:29:13;7.00;;;4.80;;
74401;SDS011;62837;51.082;13.744;2022-09-12T08:31:44;7.50;;;4.80;;
74401;SDS011;62837;51.082;13.744;2022-09-12T08:34:15;7.00;;;5.00;;
74401;SDS011;62837;51.082;13.744;2022-09-12T08:36:46;8.70;;;5.10;;
74401;SDS011;62837;51.082;13.744;2022-09-12T08:39:16;7.30;;;4.60;;
74401;SDS011;62837;51.082;13.744;2022-09-12T08:41:48;5.90;;;4.40;;
74401;SDS011;62837;51.082;13.744;2022-09-12T08:47:29;5.70;;;3.70;;
74401;SDS011;62837;51.082;13.744;2022-09-12T08:52:55;6.30;;;4.10;;
74401;SDS011;62837;51.082;13.744;2022-09-12T08:55:31;4.80;;;3.60;;
74401;SDS011;62837;51.082;13.744;2022-09-12T08:58:09;6.90;;;4.00;;
74401;SDS011;62837;51.082;13.744;2022-09-12T09:00:45;4.90;;;4.10;;
74401;SDS011;62837;51.082;13.744;2022-09-12T09:03:39;6.40;;;4.00;;
74401;SDS011;62837;51.082;13.744;2022-09-12T09:06:37;6.10;;;4.00;;
74401;SDS011;62837;51.082;13.744;2022-09-12T09:09:24;4.60;;;3.80;;
74401;SDS011;62837;51.082;13.744;2022-09-12T09:12:09;5.70;;;3.90;;
74401;SDS011;62837;51.082;13.744;2022-09-12T09:17:40;5.00;;;3.40;;
74401;SDS011;62837;51.082;13.744;2022-09-12T09:20:17;4.60;;;2.90;;
74401;SDS011;62837;51.082;13.744;2022-09-12T09:22:52;4.60;;;3.20;;
74401;SDS011;62837;51.082;13.744;2022-09-12T09:25:28;5.40;;;2.30;;
74401;SDS011;62837;51.082;13.744;2022-09-12T09:28:12;3.90;;;2.70;;
74401;SDS011;62837;51.082;13.744;2022-09-12T09:30:47;4.80;;;3.00;;
74401;SDS011;62837;51.082;13.744;2022-09-12T09:33:21;4.70;;;3.00;;
74401;SDS011;62837;51.082;13.744;2022-09-12T09:35:58;4.70;;;2.90;;
74401;SDS011;62837;51.082;13.744;2022-09-12T09:38:39;4.20;;;3.30;;
74401;SDS011;62837;51.082;13.744;2022-09-12T09:41:22;7.30;;;3.30;;
74401;SDS011;62837;51.082;13.744;2022-09-12T09:44:02;5.00;;;3.10;;
74401;SDS011;62837;51.082;13.744;2022-09-12T09:46:38;4.60;;;2.90;;
74401;SDS011;62837;51.082;13.744;2022-09-12T09:49:09;4.90;;;4.30;;
74401;SDS011;62837;51.082;13.744;2022-09-12T09:51:43;4.80;;;2.90;;
74401;SDS011;62837;51.082;13.744;2022-09-12T09:54:17;5.20;;;3.40;;
74401;SDS011;62837;51.082;13.744;2022-09-12T09:56:51;4.40;;;3.40;;
74401;SDS011;62837;51.082;13.744;2022-09-12T09:59:26;4.80;;;2.80;;
74401;SDS011;62837;51.082;13.744;2022-09-12T10:01:59;3.60;;;2.40;;
74401;SDS011;62837;51.082;13.744;2022-09-12T10:04:53;2.80;;;1.80;;
74401;SDS011;62837;51.082;13.744;2022-09-12T10:07:25;3.10;;;2.20;;
74401;SDS011;62837;51.082;13.744;2022-09-12T10:10:12;3.50;;;2.40;;
74401;SDS011;62837;51.082;13.744;2022-09-12T10:12:45;2.10;;;1.80;;
74401;SDS011;62837;51.082;13.744;2022-09-12T10:15:18;3.40;;;1.90;;
74401;SDS011;62837;51.082;13.744;2022-09-12T10:17:50;3.30;;;2.40;;
74401;SDS011;62837;51.082;13.744;2022-09-12T10:20:32;3.50;;;1.60;;
74401;SDS011;62837;51.082;13.744;2022-09-12T10:23:15;2.70;;;2.10;;
74401;SDS011;62837;51.082;13.744;2022-09-12T10:25:58;2.20;;;1.30;;
74401;SDS011;62837;51.082;13.744;2022-09-12T10:28:32;2.60;;;1.40;;
74401;SDS011;62837;51.082;13.744;2022-09-12T10:31:07;1.90;;;1.40;;
74401;SDS011;62837;51.082;13.744;2022-09-12T10:33:45;1.80;;;1.40;;
74401;SDS011;62837;51.082;13.744;2022-09-12T10:36:19;2.40;;;1.30;;
74401;SDS011;62837;51.082;13.744;2022-09-12T10:38:52;3.70;;;1.20;;
74401;SDS011;62837;51.082;13.744;2022-09-12T10:41:28;2.40;;;1.40;;
74401;SDS011;62837;51.082;13.744;2022-09-12T10:44:06;2.00;;;1.40;;
74401;SDS011;62837;51.082;13.744;2022-09-12T10:46:43;2.30;;;1.30;;
74401;SDS011;62837;51.082;13.744;2022-09-12T10:49:24;2.40;;;1.30;;
74401;SDS011;62837;51.082;13.744;2022-09-12T10:54:48;2.20;;;1.20;;
74401;SDS011;62837;51.082;13.744;2022-09-12T11:00:25;2.30;;;0.90;;
74401;SDS011;62837;51.082;13.744;2022-09-12T11:03:01;2.40;;;1.80;;
74401;SDS011;62837;51.082;13.744;2022-09-12T11:05:48;5.30;;;1.60;;
74401;SDS011;62837;51.082;13.744;2022-09-12T11:08:36;2.10;;;1.00;;
74401;SDS011;62837;51.082;13.744;2022-09-12T11:11:20;2.10;;;1.10;;
74401;SDS011;62837;51.082;13.744;2022-09-12T11:14:12;2.60;;;1.30;;
74401;SDS011;62837;51.082;13.744;2022-09-12T11:16:57;5.40;;;1.30;;
74401;SDS011;62837;51.082;13.744;2022-09-12T11:19:52;2.00;;;1.30;;
74401;SDS011;62837;51.082;13.744;2022-09-12T11:22:35;2.00;;;1.30;;
74401;SDS011;62837;51.082;13.744;2022-09-12T11:25:28;1.50;;;0.90;;
74401;SDS011;62837;51.082;13.744;2022-09-12T11:31:08;1.60;;;0.80;;
74401;SDS011;62837;51.082;13.744;2022-09-12T11:33:52;2.50;;;0.90;;
74401;SDS011;62837;51.082;13.744;2022-09-12T11:36:30;6.80;;;1.00;;
74401;SDS011;62837;51.082;13.744;2022-09-12T11:39:13;1.80;;;0.80;;
74401;SDS011;62837;51.082;13.744;2022-09-12T11:41:57;1.90;;;1.00;;
74401;SDS011;62837;51.082;13.744;2022-09-12T11:44:33;2.00;;;0.70;;
74401;SDS011;62837;51.082;13.744;2022-09-12T11:47:09;1.60;;;0.90;;
74401;SDS011;62837;51.082;13.744;2022-09-12T11:49:42;4.70;;;0.70;;
74401;SDS011;62837;51.082;13.744;2022-09-12T11:52:18;3.80;;;1.10;;
74401;SDS011;62837;51.082;13.744;2022-09-12T11:54:54;1.30;;;0.90;;
74401;SDS011;62837;51.082;13.744;2022-09-12T11:57:30;3.30;;;1.10;;
74401;SDS011;62837;51.082;13.744;2022-09-12T12:00:13;1.70;;;0.80;;
74401;SDS011;62837;51.082;13.744;2022-09-12T12:02:49;1.30;;;0.80;;
74401;SDS011;62837;51.082;13.744;2022-09-12T12:05:33;1.70;;;1.00;;
74401;SDS011;62837;51.082;13.744;2022-09-12T12:08:10;1.60;;;0.90;;
74401;SDS011;62837;51.082;13.744;2022-09-12T12:10:42;1.60;;;0.70;;
74401;SDS011;62837;51.082;13.744;2022-09-12T12:13:18;3.90;;;0.90;;
74401;SDS011;62837;51.082;13.744;2022-09-12T12:15:55;1.90;;;0.80;;
74401;SDS011;62837;51.082;13.744;2022-09-12T12:18:31;1.80;;;0.60;;
74401;SDS011;62837;51.082;13.744;2022-09-12T12:21:17;1.30;;;0.50;;
74401;SDS011;62837;51.082;13.744;2022-09-12T12:24:08;1.30;;;0.60;;
74401;SDS011;62837;51.082;13.744;2022-09-12T12:29:42;1.50;;;0.80;;
74401;SDS011;62837;51.082;13.744;2022-09-12T12:32:20;0.70;;;0.50;;
74401;SDS011;62837;51.082;13.744;2022-09-12T12:35:09;3.80;;;0.70;;
74401;SDS011;62837;51.082;13.744;2022-09-12T12:43:58;2.30;;;0.40;;
74401;SDS011;62837;51.082;13.744;2022-09-12T12:47:12;1.30;;;0.50;;
74401;SDS011;62837;51.082;13.744;2022-09-12T12:49:50;1.30;;;0.50;;
74401;SDS011;62837;51.082;13.744;2022-09-12T12:52:25;1.80;;;1.40;;
74401;SDS011;62837;51.082;13.744;2022-09-12T12:54:58;0.50;;;0.40;;
74401;SDS011;62837;51.082;13.744;2022-09-12T12:57:32;0.90;;;0.80;;
74401;SDS011;62837;51.082;13.744;2022-09-12T13:00:31;2.00;;;0.60;;
74401;SDS011;62837;51.082;13.744;2022-09-12T13:03:07;1.50;;;0.70;;
74401;SDS011;62837;51.082;13.744;2022-09-12T13:05:51;1.60;;;0.50;;
74401;SDS011;62837;51.082;13.744;2022-09-12T13:08:29;2.10;;;0.90;;
74401;SDS011;62837;51.082;13.744;2022-09-12T13:11:02;4.10;;;0.80;;
74401;SDS011;62837;51.082;13.744;2022-09-12T13:13:37;6.60;;;0.70;;
74401;SDS011;62837;51.082;13.744;2022-09-12T13:16:16;3.80;;;0.70;;
74401;SDS011;62837;51.082;13.744;2022-09-12T13:19:02;3.30;;;0.80;;
74401;SDS011;62837;51.082;13.744;2022-09-12T13:21:54;5.40;;;1.00;;
74401;SDS011;62837;51.082;13.744;2022-09-12T13:24:27;3.40;;;0.50;;
74401;SDS011;62837;51.082;13.744;2022-09-12T13:26:58;2.40;;;0.60;;
74401;SDS011;62837;51.082;13.744;2022-09-12T13:29:29;2.00;;;1.10;;
74401;SDS011;62837;51.082;13.744;2022-09-12T13:32:00;4.10;;;0.70;;
74401;SDS011;62837;51.082;13.744;2022-09-12T13:34:34;2.00;;;0.70;;
74401;SDS011;62837;51.082;13.744;2022-09-12T13:37:26;1.20;;;0.90;;
74401;SDS011;62837;51.082;13.744;2022-09-12T13:40:15;1.60;;;0.90;;
74401;SDS011;62837;51.082;13.744;2022-09-12T13:43:06;2.60;;;0.50;;
74401;SDS011;62837;51.082;13.744;2022-09-12T13:45:42;2.60;;;0.50;;
74401;SDS011;62837;51.082;13.744;2022-09-12T13:48:15;2.00;;;0.90;;
74401;SDS011;62837;51.082;13.744;2022-09-12T13:50:50;1.80;;;1.40;;
74401;SDS011;62837;51.082;13.744;2022-09-12T13:53:24;0.90;;;0.40;;
74401;SDS011;62837;51.082;13.744;2022-09-12T13:55:58;1.00;;;0.50;;
74401;SDS011;62837;51.082;13.744;2022-09-12T13:58:30;1.80;;;0.60;;
74401;SDS011;62837;51.082;13.744;2022-09-12T14:01:04;1.00;;;0.50;;
74401;SDS011;62837;51.082;13.744;2022-09-12T14:03:39;1.10;;;0.50;;
74401;SDS011;62837;51.082;13.744;2022-09-12T14:06:36;0.90;;;0.40;;
74401;SDS011;62837;51.082;13.744;2022-09-12T14:09:20;0.60;;;0.30;;
74401;SDS011;62837;51.082;13.744;2022-09-12T14:11:52;0.80;;;0.60;;
74401;SDS011;62837;51.082;13.744;2022-09-12T14:14:25;1.70;;;0.40;;
74401;SDS011;62837;51.082;13.744;2022-09-12T14:16:59;0.80;;;0.50;;
74401;SDS011;62837;51.082;13.744;2022-09-12T14:19:50;1.30;;;0.50;;
74401;SDS011;62837;51.082;13.744;2022-09-12T14:22:26;0.80;;;0.50;;
74401;SDS011;62837;51.082;13.744;2022-09-12T14:24:57;1.50;;;0.70;;
74401;SDS011;62837;51.082;13.744;2022-09-12T14:27:30;3.80;;;1.90;;
74401;SDS011;62837;51.082;13.744;2022-09-12T14:30:18;1.50;;;0.60;;
74401;SDS011;62837;51.082;13.744;2022-09-12T14:33:04;1.50;;;0.60;;
74401;SDS011;62837;51.082;13.744;2022-09-12T14:35:46;1.20;;;0.50;;
74401;SDS011;62837;51.082;13.744;2022-09-12T14:38:23;1.00;;;0.50;;
74401;SDS011;62837;51.082;13.744;2022-09-12T14:41:00;1.30;;;0.60;;
74401;SDS011;62837;51.082;13.744;2022-09-12T14:43:34;1.50;;;0.50;;
74401;SDS011;62837;51.082;13.744;2022-09-12T14:46:15;1.50;;;0.80;;
74401;SDS011;62837;51.082;13.744;2022-09-12T14:48:51;1.50;;;0.50;;
74401;SDS011;62837;51.082;13.744;2022-09-12T14:51:26;2.00;;;0.90;;
74401;SDS011;62837;51.082;13.744;2022-09-12T14:54:00;1.40;;;0.50;;
74401;SDS011;62837;51.082;13.744;2022-09-12T14:56:38;2.60;;;0.60;;
74401;SDS011;62837;51.082;13.744;2022-09-12T14:59:22;1.20;;;0.50;;
74401;SDS011;62837;51.082;13.744;2022-09-12T15:04:53;2.30;;;0.50;;
74401;SDS011;62837;51.082;13.744;2022-09-12T15:07:44;2.00;;;0.60;;
74401;SDS011;62837;51.082;13.744;2022-09-12T15:10:24;1.90;;;0.40;;
74401;SDS011;62837;51.082;13.744;2022-09-12T15:15:44;1.20;;;0.60;;
74401;SDS011;62837;51.082;13.744;2022-09-12T15:18:16;2.10;;;0.30;;
74401;SDS011;62837;51.082;13.744;2022-09-12T15:20:48;1.00;;;0.40;;
74401;SDS011;62837;51.082;13.744;2022-09-12T15:23:23;1.30;;;0.50;;
74401;SDS011;62837;51.082;13.744;2022-09-12T15:25:59;1.00;;;0.50;;
74401;SDS011;62837;51.082;13.744;2022-09-12T15:28:31;0.80;;;0.40;;
74401;SDS011;62837;51.082;13.744;2022-09-12T15:31:05;0.80;;;0.30;;
74401;SDS011;62837;51.082;13.744;2022-09-12T15:33:40;1.60;;;0.60;;
74401;SDS011;62837;51.082;13.744;2022-09-12T15:36:12;1.00;;;0.40;;
74401;SDS011;62837;51.082;13.744;2022-09-12T15:38:45;0.80;;;0.50;;
74401;SDS011;62837;51.082;13.744;2022-09-12T15:41:17;7.30;;;3.50;;
74401;SDS011;62837;51.082;13.744;2022-09-12T15:43:49;4.10;;;1.70;;
74401;SDS011;62837;51.082;13.744;2022-09-12T15:46:20;3.30;;;1.50;;
74401;SDS011;62837;51.082;13.744;2022-09-12T15:48:51;1.00;;;0.50;;
74401;SDS011;62837;51.082;13.744;2022-09-12T15:51:22;0.70;;;0.50;;
74401;SDS011;62837;51.082;13.744;2022-09-12T15:53:53;1.90;;;0.50;;
74401;SDS011;62837;51.082;13.744;2022-09-12T15:56:24;2.80;;;0.30;;
74401;SDS011;62837;51.082;13.744;2022-09-12T15:58:54;2.00;;;1.00;;
74401;SDS011;62837;51.082;13.744;2022-09-12T16:01:27;1.70;;;0.60;;